Ne plus se rappeler de moi
Bonjour et Bienvenue
Pas de session ouverte
Samedi 23/08/2014
d:\inetpub\wwwroot\acrroussillon\reservation\ACR\IMAGES\IMG1.JPGd:\inetpub\wwwroot\acrroussillon\reservation\ACR\IMAGES\IMG2.JPGd:\inetpub\wwwroot\acrroussillon\reservation\ACR/IMAGES/IMG3.jpg
00:00:00
Horaires du 23/08/2014 (Données à titre indicatif seulement).
Lever du soleil : 07h03 - Coucher du soleil : 20h39 (Heure Locale)
Jour aéronautique : 06h33 - Nuit aéronautique : 21h09 (Heure Locale)
Planning des réservations des aéronefs
Planning des réservations des aéronefs
2014/08/23 01:00
LFMP 230100Z AUTO 28013KT 9999 OVC080 17/13 Q1017
Planning des réservations des aéronefs
2014/08/22 19:42
TAF
AMD LFMP 221932Z 2219/2318 24010KT 9999 SCT030 BKN070
TEMPO 2219/2221 30012KT 3000 TSRA BKN030CB
BECMG 2221/2224 31015G25KT
BECMG 2303/2306 NSC
Informations sur les aéronefs
Informations sur les aéronefs
Modifications des Types de vols
ATTENTION PLUS DE PAIEMENT EN LIGNE DEPUIS LA MAISON
AEROCLUB DU ROUSSILLON. AVENUE MAURICE BELLONTE. 66000 PERPIGNAN. Tel : 04.68.73.48.18 Fax : 09.55.16.18.97 Courriel : aeroclub-roussillon@hotmail.fr
 METAR / TAF
LIENS UTILES
envoyer un e-mail
d:\inetpub\wwwroot\acrroussillon\reservation\ACR/IMAGES/Logo.jpg
Identifiez vous pour interaction
d:\inetpub\wwwroot\acrroussillon\reservation\ACR/IMAGES/Logo.jpg
Aéro-Club du Roussillon